CYRJCYGV

Guest
Details From CYRJ - ROBERVAL
To CYGV - HAVRE ST PIERRE
Flight Number -
Tags generated
Created
Modified
Stats Distance 371 nm / 688 km
Max Altitude 21,800 ft / 6,645 m
Waypoints 4
Social Downloads 0
Likes 0
Share VATSIM

Download

Looking for another format? Having issues loading an existing format? Contact us
Advertisement - Login to hide

Notes

Basic altitude profile: - Ascent Rate: 2500ft/min - Ascent Speed: 250kts - Cruise Altitude: 35000ft - Cruise Speed: 420kts - Descent Rate: 1500ft/min - Descent Speed: 250kts Options: - Use NATs: yes - Use PACOTS: yes - Use low airways: yes - Use high airways: yes

Route

CYRJ XBG 5T16 UZV CYGV

ID Type Via Altitude Latitude Longitude Leg Dist Tot Dist Heading (true) Name
O CYRJ APT - 0 ft / 0 m 48.52000˚ -72.26556˚ - 0 nm - ROBERVAL
XBG VOR - 17,500 ft / 5,334 m 48.32949˚ -70.99567˚ 51 nm 51 nm 102° / 103° -
UZV VOR 5T16 (AWY-HI) 21,800 ft / 6,645 m 50.22389˚ -66.26611˚ 217 nm 269 nm 57° / 60° -
O CYGV APT - 0 ft / 0 m 50.28194˚ -63.61139˚ 101 nm 371 nm 87° / 89° HAVRE ST PIERRE

Altitude Profile

Advertisement - Login to hide

Weather


0- 5 10 15 20 25 30 35+ Temperature / ° C

Clouds and Precipitation
Forecast for 2017-12-18 00:00 UTC. Updated 2 hours ago

Ground ~20,000 ft ~40,000 ft Winds

CYRJ

Details ICAO CYRJ (YRJ)
Name ROBERVAL
Region Canada
Timezone America/Montreal (UTC-5.0)
Stats Elevation 586 ft / 179 m (AMSL)
Location 48.520001° -72.265556°
Runways 1
Magnetic Variation 16.084° W

METAR

CYRJ 172300Z 27005KT 20SM FEW027 M24/M26 A3024 RMK SC1 SC TR SLP266

Decode

TAF

TAF CYRJ 171938Z 1720/1803 VRB03KT P6SM BKN025 TEMPO 1720/1724 4SM -SHSN OVC015 FM180000 23005KT P6SM FEW015 RMK NXT FCST WILL BE ISSUED AT 181245Z

Decode

Departure Runways

ID Width Length Bearing (true) Bearing (mag) Surface Threshold Offset Overrun Length
16 150 ft / 46 m 5,096 ft / 1,553 m 142.69° 158.77° Asphalt 0 ft / 0 m 0 ft / 0 m
34 150 ft / 46 m 5,096 ft / 1,553 m 322.70° 338.78° Asphalt 0 ft / 0 m 0 ft / 0 m

CYGV

Details ICAO CYGV (YGV)
Name HAVRE ST PIERRE
Region Canada
Timezone America/Montreal (UTC-5.0)
Stats Elevation 124 ft / 38 m (AMSL)
Location 50.281945° -63.611389°
Runways 1
Magnetic Variation 19.309° W

METAR

CYGV 172300Z AUTO 30009KT 9SM FEW250 M12/M18 A2988 RMK SLP122

Decode

TAF

TAF CYGV 171938Z 1720/1808 29012G22KT P6SM FEW220 RMK FCST BASED ON AUTO OBS. NXT FCST BY 180200Z

Decode

Destination Runways

ID Width Length Bearing (true) Bearing (mag) Surface Threshold Offset Overrun Length
09 100 ft / 30 m 4,498 ft / 1,371 m 63.21° 82.52° Asphalt 0 ft / 0 m 0 ft / 0 m
27 100 ft / 30 m 4,498 ft / 1,371 m 243.22° 262.53° Asphalt 0 ft / 0 m 0 ft / 0 m

Approach Navaids

Runway Type Ident Frequency Range Bearing (true) Bearing (mag) Slope Elevation
09 Localiser IGV 109.30 MHz 18 nm / 33 km 62.00° 81.31° - 124 ft / 38 m (AMSL)